createdAt,value
2023-01-26T00:00:34.051Z,-0.28
2023-01-26T00:01:34.033Z,-0.29
2023-01-26T00:02:34.064Z,-0.31
2023-01-26T00:03:34.280Z,-0.29
2023-01-26T00:04:33.988Z,-0.31
2023-01-26T00:05:33.971Z,-0.36
2023-01-26T00:06:33.984Z,-0.34
2023-01-26T00:07:33.953Z,-0.39
2023-01-26T00:08:33.938Z,-0.39
2023-01-26T00:09:33.939Z,-0.39
2023-01-26T00:10:33.925Z,-0.37
2023-01-26T00:11:33.926Z,-0.40
2023-01-26T00:12:33.897Z,-0.37
2023-01-26T00:13:33.889Z,-0.34
2023-01-26T00:14:33.871Z,-0.37
2023-01-26T00:15:33.874Z,-0.36
2023-01-26T00:16:33.884Z,-0.36
2023-01-26T00:17:33.832Z,-0.40
2023-01-26T00:18:33.824Z,-0.42
2023-01-26T00:19:33.808Z,-0.31
2023-01-26T00:20:33.829Z,-0.39
2023-01-26T00:21:33.786Z,-0.40
2023-01-26T00:22:33.804Z,-0.42
2023-01-26T00:23:33.761Z,-0.31
2023-01-26T00:24:33.761Z,-0.37
2023-01-26T00:25:33.781Z,-0.39
2023-01-26T00:26:33.727Z,-0.34
2023-01-26T00:27:33.731Z,-0.34
2023-01-26T00:28:33.739Z,-0.37
2023-01-26T00:29:33.702Z,-0.40
2023-01-26T00:30:33.759Z,-0.37
2023-01-26T00:31:33.701Z,-0.37
2023-01-26T00:32:33.663Z,-0.31
2023-01-26T00:33:33.687Z,-0.33
2023-01-26T00:34:33.656Z,-0.39
2023-01-26T00:35:33.633Z,-0.40
2023-01-26T00:36:33.615Z,-0.34
2023-01-26T00:37:33.613Z,-0.36
2023-01-26T00:38:33.613Z,-0.40
2023-01-26T00:39:33.610Z,-0.43
2023-01-26T00:40:33.578Z,-0.36
2023-01-26T00:41:33.587Z,-0.43
2023-01-26T00:42:33.546Z,-0.52
2023-01-26T00:43:33.565Z,-0.37
2023-01-26T00:44:33.523Z,-0.43
2023-01-26T00:45:33.519Z,-0.47
2023-01-26T00:46:33.575Z,-0.39
2023-01-26T00:47:33.494Z,-0.42
2023-01-26T00:48:33.478Z,-0.42
2023-01-26T00:49:33.494Z,-0.43
2023-01-26T00:50:33.500Z,-0.49
2023-01-26T00:51:33.453Z,-0.43
2023-01-26T00:52:33.443Z,-0.39
2023-01-26T00:53:33.446Z,-0.47
2023-01-26T00:54:33.453Z,-0.44
2023-01-26T00:55:33.416Z,-0.46
2023-01-26T00:56:33.413Z,-0.44
2023-01-26T00:57:33.406Z,-0.47
2023-01-26T00:58:33.375Z,-0.46
2023-01-26T00:59:33.389Z,-0.44
2023-01-26T01:00:33.420Z,-0.43
2023-01-26T01:01:33.391Z,-0.42
2023-01-26T01:02:33.320Z,-0.40
2023-01-26T01:03:33.315Z,-0.51
2023-01-26T01:04:33.316Z,-0.44
2023-01-26T01:05:33.346Z,-0.40
2023-01-26T01:06:33.299Z,-0.43
2023-01-26T01:07:33.274Z,-0.42
2023-01-26T01:08:33.263Z,-0.49
2023-01-26T01:09:33.251Z,-0.49
2023-01-26T01:10:33.243Z,-0.51
2023-01-26T01:11:33.248Z,-0.52
2023-01-26T01:12:33.211Z,-0.54
2023-01-26T01:13:33.250Z,-0.47
2023-01-26T01:14:33.188Z,-0.52
2023-01-26T01:15:33.186Z,-0.49
2023-01-26T01:16:33.199Z,-0.43
2023-01-26T01:17:33.353Z,-0.57
2023-01-26T01:18:33.165Z,-0.40
2023-01-26T01:19:33.138Z,-0.46
2023-01-26T01:20:33.118Z,-0.40
2023-01-26T01:21:33.117Z,-0.43
2023-01-26T01:22:33.115Z,-0.43
2023-01-26T01:23:33.113Z,-0.47
2023-01-26T01:24:33.077Z,-0.42
2023-01-26T01:25:33.074Z,-0.46
2023-01-26T01:26:33.076Z,-0.52
2023-01-26T01:27:33.057Z,-0.46
2023-01-26T01:28:33.048Z,-0.44
2023-01-26T01:29:33.042Z,-0.42
2023-01-26T01:30:33.010Z,-0.37
2023-01-26T01:31:33.186Z,-0.39
2023-01-26T01:32:33.011Z,-0.42
2023-01-26T01:33:32.985Z,-0.49
2023-01-26T01:34:32.994Z,-0.39
2023-01-26T01:35:32.959Z,-0.42
2023-01-26T01:36:32.941Z,-0.49
2023-01-26T01:37:32.941Z,-0.33
2023-01-26T01:38:32.942Z,-0.34
2023-01-26T01:39:32.912Z,-0.39
2023-01-26T01:40:32.904Z,-0.47
2023-01-26T01:41:32.912Z,-0.42
2023-01-26T01:42:32.874Z,-0.40
2023-01-26T01:43:32.870Z,-0.44
2023-01-26T01:44:32.851Z,-0.46
2023-01-26T01:45:32.881Z,-0.44
2023-01-26T01:46:32.906Z,-0.42
2023-01-26T01:47:32.823Z,-0.44
2023-01-26T01:48:32.807Z,-0.42
2023-01-26T01:49:32.822Z,-0.43
2023-01-26T01:50:32.786Z,-0.44
2023-01-26T01:51:32.787Z,-0.40
2023-01-26T01:52:32.806Z,-0.44
2023-01-26T01:53:32.755Z,-0.46
2023-01-26T01:54:32.740Z,-0.58
2023-01-26T01:55:32.733Z,-0.39
2023-01-26T01:56:32.715Z,-0.46
2023-01-26T01:57:32.731Z,-0.55
2023-01-26T01:58:32.727Z,-0.58
2023-01-26T01:59:32.694Z,-0.42
2023-01-26T02:00:32.740Z,-0.43
2023-01-26T02:01:32.681Z,-0.44
2023-01-26T02:02:32.669Z,-0.62
2023-01-26T02:03:32.647Z,-0.39
2023-01-26T02:04:32.634Z,-0.49
2023-01-26T02:05:32.637Z,-0.51
2023-01-26T02:06:32.627Z,-0.55
2023-01-26T02:07:32.600Z,-0.51
2023-01-26T02:08:32.600Z,-0.60
2023-01-26T02:09:32.579Z,-0.54
2023-01-26T02:10:32.572Z,-0.54
2023-01-26T02:11:32.571Z,-0.52
2023-01-26T02:12:32.537Z,-0.43
2023-01-26T02:13:32.560Z,-0.49
2023-01-26T02:14:32.513Z,-0.49
2023-01-26T02:15:32.508Z,-0.52
2023-01-26T02:16:32.553Z,-0.51
2023-01-26T02:17:32.504Z,-0.51
2023-01-26T02:18:32.483Z,-0.51
2023-01-26T02:19:32.463Z,-0.49
2023-01-26T02:20:32.456Z,-0.52
2023-01-26T02:21:32.441Z,-0.52
2023-01-26T02:22:32.432Z,-0.58
2023-01-26T02:23:32.436Z,-0.54
2023-01-26T02:24:32.411Z,-0.51
2023-01-26T02:25:32.394Z,-0.57
2023-01-26T02:26:32.381Z,-0.58
2023-01-26T02:27:32.380Z,-0.57
2023-01-26T02:28:32.386Z,-0.49
2023-01-26T02:29:32.370Z,-0.49
2023-01-26T02:30:32.367Z,-0.57
2023-01-26T02:31:32.425Z,-0.52
2023-01-26T02:32:32.311Z,-0.49
2023-01-26T02:33:32.321Z,-0.57
2023-01-26T02:34:32.341Z,-0.49
2023-01-26T02:35:32.290Z,-0.51
2023-01-26T02:36:32.271Z,-0.54
2023-01-26T02:37:32.259Z,-0.52
2023-01-26T02:38:32.246Z,-0.55
2023-01-26T02:39:32.256Z,-0.44
2023-01-26T02:40:32.256Z,-0.54
2023-01-26T02:41:32.217Z,-0.43
2023-01-26T02:42:32.201Z,-0.60
2023-01-26T02:43:32.192Z,-0.58
2023-01-26T02:44:32.210Z,-0.55
2023-01-26T02:45:32.190Z,-0.58
2023-01-26T02:46:32.176Z,-0.52
2023-01-26T02:47:32.148Z,-0.43
2023-01-26T02:48:32.133Z,-0.54
2023-01-26T02:49:32.144Z,-0.55
2023-01-26T02:50:32.143Z,-0.47
2023-01-26T02:51:32.103Z,-0.55
2023-01-26T02:52:32.127Z,-0.44
2023-01-26T02:53:32.083Z,-0.55
2023-01-26T02:54:32.084Z,-0.57
2023-01-26T02:55:32.059Z,-0.57
2023-01-26T02:56:32.047Z,-0.54
2023-01-26T02:57:32.036Z,-0.54
2023-01-26T02:58:32.024Z,-0.49
2023-01-26T02:59:32.014Z,-0.60
2023-01-26T03:00:32.060Z,-0.57
2023-01-26T03:01:32.656Z,-0.67
2023-01-26T03:02:31.975Z,-0.65
2023-01-26T03:03:31.968Z,-0.54
2023-01-26T03:04:31.975Z,-0.61
2023-01-26T03:05:31.962Z,-0.61
2023-01-26T03:06:31.929Z,-0.61
2023-01-26T03:07:31.928Z,-0.64
2023-01-26T03:08:31.924Z,-0.58
2023-01-26T03:09:31.923Z,-0.60
2023-01-26T03:10:31.899Z,-0.61
2023-01-26T03:11:31.879Z,-0.64
2023-01-26T03:12:31.869Z,-0.54
2023-01-26T03:13:31.858Z,-0.62
2023-01-26T03:14:31.857Z,-0.58
2023-01-26T03:15:31.836Z,-0.62
2023-01-26T03:16:31.865Z,-0.54
2023-01-26T03:17:31.809Z,-0.60
2023-01-26T03:18:31.819Z,-0.62
2023-01-26T03:19:31.795Z,-0.69
2023-01-26T03:20:31.775Z,-0.55
2023-01-26T03:21:31.786Z,-0.70
2023-01-26T03:22:31.755Z,-0.58
2023-01-26T03:23:31.762Z,-0.69
2023-01-26T03:24:31.725Z,-0.61
2023-01-26T03:25:31.721Z,-0.69
2023-01-26T03:26:31.701Z,-0.61
2023-01-26T03:27:31.706Z,-0.72
2023-01-26T03:28:31.713Z,-0.64
2023-01-26T03:29:31.696Z,-0.69
2023-01-26T03:30:31.677Z,-0.69
2023-01-26T03:31:31.686Z,-0.69
2023-01-26T03:32:31.642Z,-0.70
2023-01-26T03:33:31.699Z,-0.72
2023-01-26T03:34:31.643Z,-0.78
2023-01-26T03:35:31.611Z,-0.69
2023-01-26T03:36:31.593Z,-0.73
2023-01-26T03:37:31.604Z,-0.72
2023-01-26T03:38:31.590Z,-0.64
2023-01-26T03:39:31.598Z,-0.72
2023-01-26T03:40:31.567Z,-0.67
2023-01-26T03:41:31.542Z,-0.69
2023-01-26T03:42:31.521Z,-0.75
2023-01-26T03:43:31.518Z,-0.76
2023-01-26T03:44:31.532Z,-0.62
2023-01-26T03:45:31.496Z,-0.65
2023-01-26T03:46:31.496Z,-0.70
2023-01-26T03:47:31.482Z,-0.60
2023-01-26T03:48:31.485Z,-0.62
2023-01-26T03:49:31.451Z,-0.57
2023-01-26T03:50:31.457Z,-0.61
2023-01-26T03:51:31.428Z,-0.62
2023-01-26T03:52:31.425Z,-0.61
2023-01-26T03:53:31.454Z,-0.60
2023-01-26T03:54:31.384Z,-0.54
2023-01-26T03:55:31.389Z,-0.55
2023-01-26T03:56:31.366Z,-0.69
2023-01-26T03:57:31.359Z,-0.57
2023-01-26T03:58:31.369Z,-0.72
2023-01-26T03:59:31.357Z,-0.69
2023-01-26T04:00:31.355Z,-0.60
2023-01-26T04:01:31.318Z,-0.60
2023-01-26T04:02:31.331Z,-0.61
2023-01-26T04:03:31.299Z,-0.67
2023-01-26T04:04:31.295Z,-0.65
2023-01-26T04:05:31.290Z,-0.61
2023-01-26T04:06:31.256Z,-0.52
2023-01-26T04:07:31.251Z,-0.58
2023-01-26T04:08:31.233Z,-0.67
2023-01-26T04:09:31.282Z,-0.64
2023-01-26T04:10:31.231Z,-0.62
2023-01-26T04:11:31.203Z,-0.67
2023-01-26T04:12:31.205Z,-0.60
2023-01-26T04:13:31.183Z,-0.62
2023-01-26T04:14:31.159Z,-0.61
2023-01-26T04:15:31.183Z,-0.61
2023-01-26T04:16:31.189Z,-0.69
2023-01-26T04:17:31.156Z,-0.67
2023-01-26T04:18:31.115Z,-0.52
2023-01-26T04:19:31.115Z,-0.52
2023-01-26T04:20:31.113Z,-0.58
2023-01-26T04:21:31.091Z,-0.55
2023-01-26T04:22:31.083Z,-0.55
2023-01-26T04:23:31.071Z,-0.52
2023-01-26T04:24:31.052Z,-0.54
2023-01-26T04:25:31.083Z,-0.75
2023-01-26T04:26:31.028Z,-0.69
2023-01-26T04:27:31.028Z,-0.78
2023-01-26T04:28:31.013Z,-0.76
2023-01-26T04:29:31.003Z,-0.73
2023-01-26T04:30:31.093Z,-0.65
2023-01-26T04:31:31.006Z,-0.70
2023-01-26T04:32:30.960Z,-0.69
2023-01-26T04:33:30.962Z,-0.75
2023-01-26T04:34:30.950Z,-0.70
2023-01-26T04:35:30.957Z,-0.69
2023-01-26T04:36:30.918Z,-0.65
2023-01-26T04:37:30.928Z,-0.64
2023-01-26T04:38:30.907Z,-0.61
2023-01-26T04:39:30.887Z,-0.65
2023-01-26T04:40:30.890Z,-0.62
2023-01-26T04:41:30.895Z,-0.69
2023-01-26T04:42:30.852Z,-0.58
2023-01-26T04:43:30.844Z,-0.61
2023-01-26T04:44:30.834Z,-0.70
2023-01-26T04:45:30.874Z,-0.58
2023-01-26T04:46:30.839Z,-0.55
2023-01-26T04:47:30.815Z,-0.55
2023-01-26T04:48:30.793Z,-0.52
2023-01-26T04:49:30.769Z,-0.64
2023-01-26T04:50:30.768Z,-0.55
2023-01-26T04:51:30.772Z,-0.57
2023-01-26T04:52:30.753Z,-0.57
2023-01-26T04:53:30.732Z,-0.51
2023-01-26T04:54:30.717Z,-0.52
2023-01-26T04:55:30.709Z,-0.54
2023-01-26T04:56:30.732Z,-0.54
2023-01-26T04:57:30.699Z,-0.52
2023-01-26T04:58:30.680Z,-0.55
2023-01-26T04:59:30.656Z,-0.60
2023-01-26T05:00:30.658Z,-0.52
2023-01-26T05:01:30.671Z,-0.55
2023-01-26T05:02:30.633Z,-0.55
2023-01-26T05:03:30.620Z,-0.57
2023-01-26T05:04:30.677Z,-0.65
2023-01-26T05:05:30.594Z,-0.62
2023-01-26T05:06:30.626Z,-0.57
2023-01-26T05:07:30.586Z,-0.57
2023-01-26T05:08:30.558Z,-0.61
2023-01-26T05:09:30.550Z,-0.55
2023-01-26T05:10:30.577Z,-0.69
2023-01-26T05:11:30.531Z,-0.69
2023-01-26T05:12:30.517Z,-0.57
2023-01-26T05:13:30.517Z,-0.65
2023-01-26T05:14:30.511Z,-0.62
2023-01-26T05:15:30.497Z,-0.61
2023-01-26T05:16:30.514Z,-0.72
2023-01-26T05:17:30.461Z,-0.57
2023-01-26T05:18:30.451Z,-0.67
2023-01-26T05:19:30.461Z,-0.61
2023-01-26T05:20:30.445Z,-0.65
2023-01-26T05:21:30.412Z,-0.60
2023-01-26T05:22:30.422Z,-0.64
2023-01-26T05:23:30.395Z,-0.65
2023-01-26T05:24:30.401Z,-0.58
2023-01-26T05:25:30.364Z,-0.61
2023-01-26T05:26:30.363Z,-0.65
2023-01-26T05:27:30.353Z,-0.70
2023-01-26T05:28:30.341Z,-0.54
2023-01-26T05:29:30.355Z,-0.55
2023-01-26T05:30:30.383Z,-0.64
2023-01-26T05:31:30.333Z,-0.67
2023-01-26T05:32:30.293Z,-0.61
2023-01-26T05:33:30.280Z,-0.62
2023-01-26T05:34:30.268Z,-0.60
2023-01-26T05:35:30.284Z,-0.60
2023-01-26T05:36:30.250Z,-0.64
2023-01-26T05:37:30.241Z,-0.67
2023-01-26T05:38:30.224Z,-0.57
2023-01-26T05:39:30.208Z,-0.70
2023-01-26T05:40:30.223Z,-0.60
2023-01-26T05:41:30.198Z,-0.65
2023-01-26T05:42:30.180Z,-0.64
2023-01-26T05:43:30.164Z,-0.57
2023-01-26T05:44:30.185Z,-0.62
2023-01-26T05:45:30.217Z,-0.67
2023-01-26T05:46:30.135Z,-0.64
2023-01-26T05:47:30.139Z,-0.64
2023-01-26T05:48:30.133Z,-0.73
2023-01-26T05:49:30.100Z,-0.61
2023-01-26T05:50:30.096Z,-0.61
2023-01-26T05:51:30.071Z,-0.61
2023-01-26T05:52:30.105Z,-0.61
2023-01-26T05:53:30.057Z,-0.55
2023-01-26T05:54:30.044Z,-0.64
2023-01-26T05:55:30.045Z,-0.57
2023-01-26T05:56:30.027Z,-0.60
2023-01-26T05:57:30.008Z,-0.61
2023-01-26T05:58:30.022Z,-0.57
2023-01-26T05:59:29.988Z,-0.61
2023-01-26T06:00:30.003Z,-0.61
2023-01-26T06:01:29.985Z,-0.55
2023-01-26T06:02:30.034Z,-0.64
2023-01-26T06:03:29.945Z,-0.69
2023-01-26T06:04:29.985Z,-0.57
2023-01-26T06:05:29.945Z,-0.64
2023-01-26T06:06:29.929Z,-0.55
2023-01-26T06:07:29.890Z,-0.55
2023-01-26T06:08:29.889Z,-0.51
2023-01-26T06:09:29.869Z,-0.52
2023-01-26T06:10:29.887Z,-0.52
2023-01-26T06:11:29.857Z,-0.52
2023-01-26T06:12:29.843Z,-0.61
2023-01-26T06:13:29.837Z,-0.55
2023-01-26T06:14:29.820Z,-0.58
2023-01-26T06:15:29.826Z,-0.54
2023-01-26T06:16:29.899Z,-0.55
2023-01-26T06:17:29.794Z,-0.49
2023-01-26T06:18:29.774Z,-0.58
2023-01-26T06:19:29.766Z,-0.55
2023-01-26T06:20:29.769Z,-0.58
2023-01-26T06:21:29.734Z,-0.55
2023-01-26T06:22:29.728Z,-0.55
2023-01-26T06:23:29.739Z,-0.55
2023-01-26T06:24:29.723Z,-0.49
2023-01-26T06:25:29.687Z,-0.54
2023-01-26T06:26:29.687Z,-0.58
2023-01-26T06:27:29.671Z,-0.47
2023-01-26T06:28:29.688Z,-0.52
2023-01-26T06:29:29.654Z,-0.57
2023-01-26T06:30:29.763Z,-0.58
2023-01-26T06:31:29.847Z,-0.55
2023-01-26T06:32:29.617Z,-0.57
2023-01-26T06:33:29.636Z,-0.58
2023-01-26T06:34:29.593Z,-0.67
2023-01-26T06:35:29.580Z,-0.60
2023-01-26T06:36:29.626Z,-0.64
2023-01-26T06:37:29.559Z,-0.62
2023-01-26T06:38:29.573Z,-0.55
2023-01-26T06:39:29.541Z,-0.61
2023-01-26T06:40:29.528Z,-0.54
2023-01-26T06:41:29.522Z,-0.58
2023-01-26T06:42:29.520Z,-0.60
2023-01-26T06:43:29.504Z,-0.62
2023-01-26T06:44:29.485Z,-0.69
2023-01-26T06:45:29.510Z,-0.61
2023-01-26T06:46:29.489Z,-0.61
2023-01-26T06:47:29.457Z,-0.64
2023-01-26T06:48:29.444Z,-0.60
2023-01-26T06:49:29.465Z,-0.58
2023-01-26T06:50:29.414Z,-0.64
2023-01-26T06:51:29.394Z,-0.64
2023-01-26T06:52:29.391Z,-0.52
2023-01-26T06:53:29.406Z,-0.61
2023-01-26T06:54:29.394Z,-0.67
2023-01-26T06:55:29.375Z,-0.58
2023-01-26T06:56:29.353Z,-0.69
2023-01-26T06:57:29.338Z,-0.62
2023-01-26T06:58:29.325Z,-0.55
2023-01-26T06:59:29.340Z,-0.58
2023-01-26T07:00:29.301Z,-0.55
2023-01-26T07:01:29.336Z,-0.58
2023-01-26T07:02:29.305Z,-0.62
2023-01-26T07:03:29.280Z,-0.55
2023-01-26T07:04:29.259Z,-0.55
2023-01-26T07:05:29.276Z,-0.52
2023-01-26T07:06:29.238Z,-0.55
2023-01-26T07:07:29.252Z,-0.57
2023-01-26T07:08:29.213Z,-0.67
2023-01-26T07:09:29.219Z,-0.61
2023-01-26T07:10:29.201Z,-0.58
2023-01-26T07:11:29.172Z,-0.70
2023-01-26T07:12:29.166Z,-0.62
2023-01-26T07:13:29.149Z,-0.64
2023-01-26T07:14:29.176Z,-0.65
2023-01-26T07:15:29.131Z,-0.60
2023-01-26T07:16:29.299Z,-0.65
2023-01-26T07:17:29.102Z,-0.65
2023-01-26T07:18:29.106Z,-0.64
2023-01-26T07:19:29.100Z,-0.57
2023-01-26T07:20:29.080Z,-0.69
2023-01-26T07:21:29.072Z,-0.57
2023-01-26T07:22:29.090Z,-0.57
2023-01-26T07:23:29.040Z,-0.55
2023-01-26T07:24:29.036Z,-0.49
2023-01-26T07:25:29.040Z,-0.42
2023-01-26T07:26:29.008Z,-0.43
2023-01-26T07:27:28.992Z,-0.49
2023-01-26T07:28:29.021Z,-0.42
2023-01-26T07:29:29.012Z,-0.39
2023-01-26T07:30:28.967Z,-0.43
2023-01-26T07:31:29.062Z,-0.40
2023-01-26T07:32:28.943Z,-0.47
2023-01-26T07:33:28.922Z,-0.49
2023-01-26T07:34:28.951Z,-0.42
2023-01-26T07:35:28.920Z,-0.37
2023-01-26T07:36:28.925Z,-0.44
2023-01-26T07:37:28.900Z,-0.46
2023-01-26T07:38:28.880Z,-0.42
2023-01-26T07:39:28.877Z,-0.52
2023-01-26T07:40:28.865Z,-0.46
2023-01-26T07:41:28.841Z,-0.36
2023-01-26T07:42:28.832Z,-0.39
2023-01-26T07:43:28.815Z,-0.47
2023-01-26T07:44:28.825Z,-0.47
2023-01-26T07:45:28.793Z,-0.47
2023-01-26T07:46:28.999Z,-0.33
2023-01-26T07:47:28.781Z,-0.37
2023-01-26T07:48:28.788Z,-0.36
2023-01-26T07:49:28.746Z,-0.40
2023-01-26T07:50:28.743Z,-0.37
2023-01-26T07:51:28.719Z,-0.28
2023-01-26T07:52:28.726Z,-0.31
2023-01-26T07:53:28.741Z,-0.23
2023-01-26T07:54:28.730Z,-0.28
2023-01-26T07:55:28.677Z,-0.28
2023-01-26T07:56:28.671Z,-0.22
2023-01-26T07:57:28.655Z,-0.21
2023-01-26T07:58:28.663Z,-0.18
2023-01-26T07:59:28.638Z,-0.28
2023-01-26T08:00:28.694Z,-0.23
2023-01-26T08:01:28.672Z,-0.23
2023-01-26T08:02:28.634Z,-0.26
2023-01-26T08:03:28.594Z,-0.28
2023-01-26T08:04:36.181Z,-0.29
2023-01-26T08:05:28.572Z,-0.34
2023-01-26T08:06:28.582Z,-0.28
2023-01-26T08:07:28.566Z,-0.26
2023-01-26T08:08:28.548Z,-0.31
2023-01-26T08:09:28.546Z,-0.23
2023-01-26T08:10:28.592Z,-0.28
2023-01-26T08:11:28.514Z,-0.33
2023-01-26T08:12:28.494Z,-0.34
2023-01-26T08:13:35.244Z,-0.34
2023-01-26T08:14:45.201Z,-0.33
2023-01-26T08:15:29.488Z,-0.33
2023-01-26T08:16:28.489Z,-0.26
2023-01-26T08:17:28.431Z,-0.28
2023-01-26T08:18:28.440Z,-0.28
2023-01-26T08:19:28.423Z,-0.25
2023-01-26T08:20:28.459Z,-0.21
2023-01-26T08:21:28.405Z,-0.25
2023-01-26T08:22:28.386Z,-0.26
2023-01-26T08:23:28.363Z,-0.11
2023-01-26T08:24:28.381Z,-0.22
2023-01-26T08:25:28.355Z,-0.18
2023-01-26T08:26:28.356Z,-0.11
2023-01-26T08:27:28.333Z,-0.08
2023-01-26T08:28:28.320Z,-0.03
2023-01-26T08:29:28.292Z,0.00
2023-01-26T08:30:28.310Z,-0.01
2023-01-26T08:31:28.498Z,-0.04
2023-01-26T08:32:28.276Z,0.00
2023-01-26T08:33:28.273Z,0.02
2023-01-26T08:34:28.244Z,-0.03
2023-01-26T08:35:28.246Z,0.00
2023-01-26T08:36:28.239Z,0.03
2023-01-26T08:37:28.224Z,-0.01
2023-01-26T08:38:28.209Z,0.04
2023-01-26T08:39:28.183Z,0.04
2023-01-26T08:40:28.179Z,0.13
2023-01-26T08:41:28.218Z,0.11
2023-01-26T08:42:28.158Z,0.10
2023-01-26T08:43:28.137Z,0.11
2023-01-26T08:44:28.130Z,0.15
2023-01-26T08:45:28.117Z,0.17
2023-01-26T08:46:28.135Z,0.17
2023-01-26T08:47:28.092Z,0.21
2023-01-26T08:48:28.109Z,0.15
2023-01-26T08:49:28.093Z,0.20
2023-01-26T08:50:28.059Z,0.10
2023-01-26T08:51:28.043Z,0.08
2023-01-26T08:52:28.045Z,0.07
2023-01-26T08:53:28.057Z,0.07
2023-01-26T08:54:28.021Z,0.07
2023-01-26T08:55:28.011Z,0.04
2023-01-26T08:56:28.009Z,0.15
2023-01-26T08:57:28.005Z,0.13
2023-01-26T08:58:27.995Z,-0.04
2023-01-26T08:59:28.001Z,0.03
2023-01-26T09:00:27.951Z,0.02
2023-01-26T09:01:28.036Z,0.00
2023-01-26T09:02:28.154Z,-0.04
2023-01-26T09:03:27.921Z,-0.05
2023-01-26T09:04:27.925Z,-0.03
2023-01-26T09:05:27.896Z,-0.04
2023-01-26T09:06:27.880Z,-0.01
2023-01-26T09:07:27.886Z,-0.01
2023-01-26T09:08:27.876Z,0.03
2023-01-26T09:09:27.870Z,0.08
2023-01-26T09:10:27.830Z,0.00
2023-01-26T09:11:27.826Z,0.00
2023-01-26T09:12:27.818Z,0.11
2023-01-26T09:13:27.819Z,0.13
2023-01-26T09:14:27.809Z,0.13
2023-01-26T09:15:27.787Z,0.08
2023-01-26T09:16:27.800Z,0.15
2023-01-26T09:17:27.764Z,0.18
2023-01-26T09:18:27.751Z,0.23
2023-01-26T09:19:29.464Z,0.18
2023-01-26T09:20:27.752Z,0.11
2023-01-26T09:21:27.715Z,0.08
2023-01-26T09:22:27.701Z,0.04
2023-01-26T09:23:27.692Z,0.13
2023-01-26T09:24:27.797Z,0.07
2023-01-26T09:25:27.673Z,0.10
2023-01-26T09:26:27.671Z,0.13
2023-01-26T09:27:27.648Z,0.13
2023-01-26T09:28:27.634Z,0.11
2023-01-26T09:29:27.657Z,0.14
2023-01-26T09:30:27.920Z,0.13
2023-01-26T09:31:27.736Z,0.08
2023-01-26T09:32:27.589Z,0.10
2023-01-26T09:33:27.578Z,-0.03
2023-01-26T09:34:27.576Z,0.00
2023-01-26T09:35:27.593Z,0.03
2023-01-26T09:36:27.554Z,-0.03
2023-01-26T09:37:27.536Z,-0.03
2023-01-26T09:38:27.516Z,0.02
2023-01-26T09:39:27.524Z,0.10
2023-01-26T09:40:27.513Z,0.10
2023-01-26T09:41:27.510Z,0.07
2023-01-26T09:42:27.486Z,0.13
2023-01-26T09:43:27.500Z,0.13
2023-01-26T09:44:27.500Z,0.11
2023-01-26T09:45:27.500Z,0.08
2023-01-26T09:46:27.522Z,0.11
2023-01-26T09:47:27.462Z,0.08
2023-01-26T09:48:27.404Z,0.13
2023-01-26T09:49:27.401Z,0.17
2023-01-26T09:50:27.407Z,0.04
2023-01-26T09:51:27.399Z,0.04
2023-01-26T09:52:27.361Z,0.07
2023-01-26T09:53:27.378Z,0.10
2023-01-26T09:54:27.338Z,0.02
2023-01-26T09:55:27.345Z,0.04
2023-01-26T09:56:27.313Z,-0.03
2023-01-26T09:57:27.330Z,-0.03
2023-01-26T09:58:27.291Z,0.02
2023-01-26T09:59:27.302Z,-0.01
2023-01-26T10:00:27.289Z,-0.05
2023-01-26T10:01:27.358Z,-0.07
2023-01-26T10:02:27.261Z,-0.03
2023-01-26T10:03:27.244Z,-0.01
2023-01-26T10:04:27.220Z,-0.07
2023-01-26T10:05:27.234Z,-0.03
2023-01-26T10:06:27.197Z,0.14
2023-01-26T10:07:27.221Z,0.13
2023-01-26T10:08:27.184Z,0.28
2023-01-26T10:09:27.170Z,0.23
2023-01-26T10:10:27.174Z,0.21
2023-01-26T10:11:27.150Z,0.41
2023-01-26T10:12:27.157Z,0.35
2023-01-26T10:13:27.386Z,0.36
2023-01-26T10:14:27.142Z,0.28
2023-01-26T10:15:27.132Z,0.14
2023-01-26T10:16:27.091Z,0.13
2023-01-26T10:17:27.131Z,0.00
2023-01-26T10:18:27.067Z,-0.04
2023-01-26T10:19:27.122Z,-0.04
2023-01-26T10:20:27.041Z,-0.01
2023-01-26T10:21:27.350Z,-0.03
2023-01-26T10:22:28.142Z,-0.05
2023-01-26T10:23:27.811Z,-0.04
2023-01-26T10:24:27.022Z,-0.03
2023-01-26T10:25:26.996Z,-0.03
2023-01-26T10:26:26.970Z,-0.01
2023-01-26T10:27:26.985Z,0.04
2023-01-26T10:28:26.971Z,0.04
2023-01-26T10:29:26.943Z,-0.03
2023-01-26T10:30:26.954Z,-0.04
2023-01-26T10:31:26.998Z,-0.07
2023-01-26T10:32:26.905Z,-0.01
2023-01-26T10:33:26.916Z,-0.05
2023-01-26T10:34:26.898Z,0.00
2023-01-26T10:35:26.904Z,0.08
2023-01-26T10:36:26.893Z,0.11
2023-01-26T10:37:26.886Z,0.17
2023-01-26T10:38:26.841Z,0.15
2023-01-26T10:39:26.840Z,0.15
2023-01-26T10:40:26.831Z,0.15
2023-01-26T10:41:26.824Z,0.28
2023-01-26T10:42:26.817Z,0.28
2023-01-26T10:43:26.791Z,0.29
2023-01-26T10:44:26.772Z,0.26
2023-01-26T10:45:26.774Z,0.33
2023-01-26T10:46:26.906Z,0.35
2023-01-26T10:47:26.789Z,0.28
2023-01-26T10:48:26.807Z,0.31
2023-01-26T10:49:26.734Z,0.24
2023-01-26T10:50:26.701Z,0.38
2023-01-26T10:51:26.724Z,0.35
2023-01-26T10:52:26.801Z,0.44
2023-01-26T10:53:26.691Z,0.46
2023-01-26T10:54:26.660Z,0.36
2023-01-26T10:55:26.652Z,0.39
2023-01-26T10:56:26.646Z,0.42
2023-01-26T10:57:26.649Z,0.38
2023-01-26T10:58:26.626Z,0.26
2023-01-26T10:59:26.605Z,0.29
2023-01-26T11:00:26.589Z,0.29
2023-01-26T11:01:26.604Z,0.35
2023-01-26T11:02:26.617Z,0.29
2023-01-26T11:03:26.569Z,0.35
2023-01-26T11:04:26.559Z,0.36
2023-01-26T11:05:26.564Z,0.24
2023-01-26T11:06:26.522Z,0.18
2023-01-26T11:07:26.537Z,0.33
2023-01-26T11:08:26.522Z,0.15
2023-01-26T11:09:26.497Z,0.26
2023-01-26T11:10:26.483Z,0.26
2023-01-26T11:11:26.474Z,0.31
2023-01-26T11:12:26.506Z,0.11
2023-01-26T11:13:26.470Z,0.13
2023-01-26T11:14:26.470Z,0.14
2023-01-26T11:15:26.467Z,0.20
2023-01-26T11:16:26.482Z,0.28
2023-01-26T11:17:26.422Z,0.28
2023-01-26T11:18:26.400Z,0.15
2023-01-26T11:19:26.396Z,0.29
2023-01-26T11:20:26.373Z,0.23
2023-01-26T11:21:26.395Z,0.17
2023-01-26T11:22:26.340Z,0.28
2023-01-26T11:23:26.355Z,0.24
2023-01-26T11:24:26.399Z,0.31
2023-01-26T11:25:26.315Z,0.28
2023-01-26T11:26:26.292Z,0.26
2023-01-26T11:27:26.322Z,0.14
2023-01-26T11:28:26.272Z,0.07
2023-01-26T11:29:26.263Z,0.00
2023-01-26T11:30:26.250Z,0.04
2023-01-26T11:31:26.302Z,-0.05
2023-01-26T11:32:26.239Z,-0.03
2023-01-26T11:33:26.241Z,-0.04
2023-01-26T11:34:26.234Z,0.00
2023-01-26T11:35:26.219Z,0.02
2023-01-26T11:36:26.203Z,0.03
2023-01-26T11:37:26.213Z,0.00
2023-01-26T11:38:26.161Z,-0.03
2023-01-26T11:39:26.175Z,-0.16
2023-01-26T11:40:26.181Z,-0.18
2023-01-26T11:41:26.133Z,-0.23
2023-01-26T11:42:26.149Z,-0.16
2023-01-26T11:43:26.107Z,-0.28
2023-01-26T11:44:26.093Z,-0.19
2023-01-26T11:45:26.127Z,-0.14
2023-01-26T11:46:26.089Z,-0.08
2023-01-26T11:47:26.069Z,-0.08
2023-01-26T11:48:26.058Z,-0.19
2023-01-26T11:49:26.091Z,-0.22
2023-01-26T11:50:26.027Z,-0.26
2023-01-26T11:51:26.046Z,-0.26
2023-01-26T11:52:26.007Z,-0.23
2023-01-26T11:53:26.055Z,-0.36
2023-01-26T11:54:25.996Z,-0.28
2023-01-26T11:55:26.013Z,-0.21
2023-01-26T11:56:25.959Z,-0.14
2023-01-26T11:57:25.963Z,-0.14
2023-01-26T11:58:25.954Z,-0.05
2023-01-26T11:59:25.950Z,-0.07
2023-01-26T12:00:30.455Z,-0.03
2023-01-26T12:01:26.926Z,0.04
2023-01-26T12:02:27.732Z,0.14
2023-01-26T12:03:25.962Z,0.14
2023-01-26T12:04:25.873Z,0.10
2023-01-26T12:05:25.899Z,0.13
2023-01-26T12:06:25.871Z,0.15
2023-01-26T12:07:25.848Z,0.08
2023-01-26T12:08:25.837Z,0.11
2023-01-26T12:09:25.835Z,0.13
2023-01-26T12:10:25.812Z,0.10
2023-01-26T12:11:25.788Z,0.10
2023-01-26T12:12:25.797Z,0.02
2023-01-26T12:13:25.778Z,-0.03
2023-01-26T12:14:25.757Z,0.00
2023-01-26T12:15:25.744Z,-0.04
2023-01-26T12:16:25.795Z,0.03
2023-01-26T12:17:25.736Z,0.03
2023-01-26T12:18:35.001Z,0.11
2023-01-26T12:19:26.705Z,0.13
2023-01-26T12:20:25.708Z,0.10
2023-01-26T12:21:25.721Z,0.17
2023-01-26T12:22:25.808Z,0.08
2023-01-26T12:23:25.662Z,0.14
2023-01-26T12:24:54.246Z,0.07
2023-01-26T12:25:26.649Z,0.10
2023-01-26T12:26:25.624Z,0.08
2023-01-26T12:27:25.625Z,0.08
2023-01-26T12:28:25.623Z,-0.03
2023-01-26T12:29:25.599Z,-0.03
2023-01-26T12:30:25.732Z,0.02
2023-01-26T12:31:25.680Z,-0.07
2023-01-26T12:32:25.573Z,-0.07
2023-01-26T12:33:25.565Z,-0.05
2023-01-26T12:34:25.551Z,0.00
2023-01-26T12:35:25.524Z,-0.03
2023-01-26T12:36:25.566Z,0.00
2023-01-26T12:37:25.505Z,0.04
2023-01-26T12:38:25.509Z,0.13
2023-01-26T12:39:25.485Z,0.13
2023-01-26T12:40:25.469Z,0.15
2023-01-26T12:41:25.519Z,0.14
2023-01-26T12:42:25.441Z,0.21
2023-01-26T12:43:25.451Z,0.17
2023-01-26T12:44:25.426Z,0.11
2023-01-26T12:45:25.408Z,0.08
2023-01-26T12:46:25.488Z,0.08
2023-01-26T12:47:25.401Z,0.15
2023-01-26T12:48:25.382Z,0.08
2023-01-26T12:49:25.432Z,0.14
2023-01-26T12:50:25.355Z,0.03
2023-01-26T12:51:25.339Z,0.11
2023-01-26T12:52:25.361Z,0.10
2023-01-26T12:53:25.321Z,0.11
2023-01-26T12:54:25.319Z,0.11
2023-01-26T12:55:25.309Z,0.08
2023-01-26T12:56:25.284Z,0.08
2023-01-26T12:57:25.306Z,0.00
2023-01-26T12:58:25.275Z,0.07
2023-01-26T12:59:47.014Z,0.03